createdAt,value
2022-12-15T10:23:50.421Z,52.70
2022-12-15T10:25:12.217Z,58.90
2022-12-15T10:26:19.423Z,62.80
2022-12-15T10:28:09.159Z,81.80
2022-12-15T10:29:40.424Z,85.90
2022-12-15T10:30:55.579Z,77.40
2022-12-15T10:32:05.396Z,86.60
2022-12-15T10:33:15.033Z,86.50
2022-12-15T10:34:44.554Z,72.50
2022-12-15T10:35:49.022Z,71.00
2022-12-15T10:36:53.453Z,75.60
2022-12-15T10:38:05.395Z,79.40
2022-12-15T10:39:11.604Z,81.40
2022-12-15T10:40:20.065Z,85.50
2022-12-15T10:41:26.052Z,88.80
2022-12-15T10:42:29.775Z,83.60
2022-12-15T10:43:39.404Z,74.30
2022-12-15T10:44:50.598Z,60.90
2022-12-15T10:46:07.177Z,65.90
2022-12-15T10:47:23.106Z,79.70
2022-12-15T10:48:26.078Z,69.10
2022-12-15T10:49:29.067Z,74.80
2022-12-15T10:50:34.073Z,89.60
2022-12-15T10:51:44.545Z,87.30
2022-12-15T10:52:49.474Z,95.40
2022-12-15T10:54:03.384Z,90.30
2022-12-15T10:55:31.583Z,92.50
2022-12-15T10:56:45.854Z,90.90
2022-12-15T10:58:02.696Z,98.70
2022-12-15T10:59:24.570Z,97.50
2022-12-15T11:00:30.656Z,96.80
2022-12-15T11:01:35.679Z,93.70
2022-12-15T11:02:39.288Z,94.20
2022-12-15T11:03:43.280Z,93.60
2022-12-15T11:05:15.816Z,94.00
2022-12-15T11:06:22.624Z,94.30
2022-12-15T11:07:37.997Z,92.20
2022-12-15T11:08:42.324Z,95.10
2022-12-15T11:09:48.540Z,97.60
2022-12-15T11:11:15.847Z,97.70
2022-12-15T11:12:40.072Z,91.50
2022-12-15T11:14:04.712Z,94.40
2022-12-15T11:15:23.064Z,92.20
2022-12-15T11:16:26.081Z,97.10
2022-12-15T11:17:40.641Z,94.50
2022-12-15T11:18:58.847Z,93.80
2022-12-15T11:20:17.208Z,101.00
2022-12-15T11:21:35.238Z,98.80
2022-12-15T11:22:53.361Z,92.80
2022-12-15T11:24:11.534Z,95.30
2022-12-15T11:25:29.504Z,98.10
2022-12-15T11:27:00.658Z,98.90
2022-12-15T11:29:57.833Z,62.50
2022-12-15T11:31:20.502Z,56.20
2022-12-15T11:32:28.019Z,75.30
2022-12-15T11:33:31.499Z,92.20
2022-12-15T11:34:47.814Z,95.60
2022-12-15T11:36:09.736Z,89.90
2022-12-15T11:37:18.083Z,82.10
2022-12-15T11:38:48.883Z,88.10
2022-12-15T11:40:18.688Z,95.50
2022-12-15T11:41:39.832Z,66.40
2022-12-15T11:42:51.969Z,46.10
2022-12-15T11:44:21.225Z,51.60
2022-12-15T11:46:01.311Z,53.60
2022-12-15T11:47:19.730Z,57.90
2022-12-15T11:48:33.903Z,71.70
2022-12-15T11:49:47.948Z,75.10
2022-12-15T11:51:13.306Z,89.00
2022-12-15T11:52:34.672Z,81.00
2022-12-15T11:53:56.699Z,84.20
2022-12-15T11:55:13.020Z,67.40
2022-12-15T11:56:26.181Z,50.80
2022-12-15T11:58:04.616Z,47.00
2022-12-15T11:59:16.565Z,50.00
2022-12-15T12:00:23.543Z,47.40
2022-12-15T12:01:57.021Z,48.10
2022-12-15T12:03:41.178Z,62.20
2022-12-15T12:04:47.272Z,76.70
2022-12-15T12:06:08.574Z,60.10
2022-12-15T12:07:18.339Z,57.30
2022-12-15T12:08:40.378Z,76.50
2022-12-15T12:09:59.429Z,92.30
2022-12-15T12:11:17.005Z,78.40
2022-12-15T12:12:30.410Z,58.30
2022-12-15T12:14:08.086Z,61.90
2022-12-15T12:15:30.025Z,56.60
2022-12-15T12:16:39.737Z,60.50
2022-12-15T12:17:50.270Z,56.10
2022-12-15T12:19:04.483Z,59.70
2022-12-15T12:20:36.165Z,53.10
2022-12-15T12:21:44.309Z,80.10
2022-12-15T12:23:04.755Z,70.60
2022-12-15T12:24:21.264Z,64.40
2022-12-15T12:25:25.815Z,84.90
2022-12-15T12:26:28.766Z,87.90
2022-12-15T12:27:48.729Z,88.20
2022-12-15T12:29:00.982Z,92.80
2022-12-15T12:30:25.286Z,90.10
2022-12-15T12:32:00.540Z,91.70
2022-12-15T12:33:14.154Z,89.60
2022-12-15T12:34:29.388Z,88.80
2022-12-15T12:35:44.710Z,92.70
2022-12-15T12:36:49.161Z,90.80
2022-12-15T12:38:03.210Z,94.90
2022-12-15T12:39:16.225Z,88.80
2022-12-15T12:40:38.405Z,93.20
2022-12-15T12:41:50.752Z,94.00
2022-12-15T12:42:56.666Z,96.10
2022-12-15T12:44:11.314Z,98.80
2022-12-15T12:45:15.034Z,97.40
2022-12-15T12:46:27.700Z,89.70
2022-12-15T12:47:35.498Z,100.50
2022-12-15T12:49:07.231Z,98.40
2022-12-15T12:50:26.109Z,102.30
2022-12-15T12:51:38.124Z,93.60
2022-12-15T12:52:55.610Z,90.40
2022-12-15T12:54:00.130Z,96.40
2022-12-15T12:55:23.914Z,93.30
2022-12-15T12:56:43.328Z,93.70
2022-12-15T12:57:47.523Z,92.20
2022-12-15T12:58:53.197Z,89.40
2022-12-15T13:00:13.043Z,94.40
2022-12-15T13:01:33.466Z,96.80
2022-12-15T13:02:39.349Z,88.30
2022-12-15T13:03:43.634Z,96.70
2022-12-15T13:04:50.875Z,97.30
2022-12-15T13:05:54.820Z,92.50
2022-12-15T13:07:02.346Z,89.80
2022-12-15T13:08:05.279Z,96.80
2022-12-15T13:09:17.632Z,96.60
2022-12-15T13:10:22.497Z,91.80
2022-12-15T13:11:53.828Z,92.90
2022-12-15T13:13:19.173Z,97.30
2022-12-15T13:14:31.764Z,94.00
2022-12-15T13:15:42.991Z,96.20
2022-12-15T13:17:08.434Z,96.60
2022-12-15T13:18:20.615Z,98.10
2022-12-15T13:19:58.612Z,97.90
2022-12-15T13:21:34.802Z,94.00
2022-12-15T13:22:39.982Z,100.40
2022-12-15T13:23:43.129Z,96.40
2022-12-15T13:24:50.387Z,94.50
2022-12-15T13:25:56.611Z,99.50
2022-12-15T13:27:19.906Z,95.90
2022-12-15T13:28:35.540Z,95.10
2022-12-15T13:29:55.018Z,97.60
2022-12-15T13:31:20.830Z,95.60
2022-12-15T13:32:31.563Z,95.30
2022-12-15T13:33:50.163Z,91.00
2022-12-15T13:34:53.397Z,92.30
2022-12-15T13:35:57.900Z,96.20
2022-12-15T13:37:02.874Z,96.80
2022-12-15T13:38:17.449Z,99.70
2022-12-15T13:39:20.397Z,95.90
2022-12-15T13:40:23.770Z,97.40
2022-12-15T13:41:26.859Z,96.90
2022-12-15T13:43:57.807Z,100.80
2022-12-15T13:45:24.595Z,98.80
2022-12-15T13:46:33.427Z,96.70
2022-12-15T13:47:37.979Z,94.70
2022-12-15T13:48:45.720Z,103.10
2022-12-15T13:50:02.093Z,98.30
2022-12-15T13:51:18.017Z,100.00
2022-12-15T13:54:25.221Z,103.20
2022-12-15T13:55:35.784Z,100.20
2022-12-15T13:58:02.974Z,98.30
2022-12-15T13:59:16.410Z,97.90
2022-12-15T14:00:20.321Z,110.00
2022-12-15T14:01:33.231Z,109.10
2022-12-15T14:02:37.440Z,102.50
2022-12-15T14:03:55.969Z,107.60
2022-12-15T14:05:17.528Z,100.30
2022-12-15T14:06:20.889Z,99.40
2022-12-15T14:07:23.925Z,105.30
2022-12-15T14:08:30.228Z,92.70
2022-12-15T14:09:41.218Z,92.20
2022-12-15T14:10:51.299Z,88.50
2022-12-15T14:11:54.647Z,76.90
2022-12-15T14:13:01.551Z,65.40
2022-12-15T14:14:05.039Z,63.20
2022-12-15T14:15:20.142Z,53.90
2022-12-15T14:16:24.590Z,52.40
2022-12-15T14:17:28.251Z,52.70
2022-12-15T14:18:36.226Z,59.50
2022-12-15T14:19:44.976Z,70.90
2022-12-15T14:20:48.531Z,79.50
2022-12-15T14:21:54.952Z,97.00
2022-12-15T14:22:59.007Z,94.90
2022-12-15T14:24:37.004Z,85.30
2022-12-15T14:25:31.757Z,80.70
2022-12-15T14:26:34.931Z,64.30
2022-12-15T14:27:37.968Z,64.30
2022-12-15T14:28:46.642Z,64.70
2022-12-15T14:30:13.745Z,64.20
2022-12-15T14:31:21.348Z,72.70
2022-12-15T14:32:25.134Z,67.70
2022-12-15T14:33:29.902Z,60.30
2022-12-15T14:34:38.884Z,62.60
2022-12-15T14:35:44.131Z,57.90
2022-12-15T14:36:56.111Z,60.70
2022-12-15T14:38:02.742Z,60.80
2022-12-15T14:39:21.238Z,60.90
2022-12-15T14:40:28.960Z,60.80
2022-12-15T14:41:37.283Z,64.50
2022-12-15T14:42:41.420Z,63.90
2022-12-15T14:43:44.627Z,63.20
2022-12-15T14:45:21.134Z,60.80
2022-12-15T14:46:27.208Z,65.60
2022-12-15T14:47:33.928Z,61.00
2022-12-15T14:48:41.703Z,65.00
2022-12-15T14:49:46.438Z,63.30
2022-12-15T14:50:51.243Z,63.40
2022-12-15T14:52:00.704Z,64.10
2022-12-15T14:53:13.950Z,66.70
2022-12-15T14:54:59.819Z,66.40
2022-12-15T14:56:27.597Z,78.00
2022-12-15T14:57:45.471Z,69.90
2022-12-15T14:59:18.917Z,69.20
2022-12-15T15:00:50.277Z,65.90
2022-12-15T15:01:59.715Z,78.30
2022-12-15T15:03:05.499Z,100.10
2022-12-15T15:03:18.761Z,79.60
2022-12-15T15:04:31.359Z,76.00
2022-12-15T15:05:34.937Z,75.50
2022-12-15T15:06:40.185Z,76.50
2022-12-15T15:07:45.599Z,76.90
2022-12-15T15:08:53.148Z,77.40
2022-12-15T15:09:56.579Z,78.00
2022-12-15T15:11:29.706Z,76.40
2022-12-15T15:12:46.210Z,74.00
2022-12-15T15:13:56.163Z,75.30
2022-12-15T15:15:04.832Z,83.10
2022-12-15T15:16:16.373Z,70.40
2022-12-15T15:17:25.725Z,79.10
2022-12-15T15:18:29.837Z,70.20
2022-12-15T15:19:39.690Z,71.70
2022-12-15T15:20:54.903Z,69.30
2022-12-15T15:22:01.103Z,73.90
2022-12-15T15:23:04.093Z,76.70
2022-12-15T15:24:10.788Z,77.80
2022-12-15T15:25:29.341Z,84.70
2022-12-15T15:26:33.383Z,89.70
2022-12-15T15:27:39.930Z,89.60
2022-12-15T15:28:45.027Z,92.80
2022-12-15T15:29:49.053Z,86.10
2022-12-15T15:30:56.081Z,91.20
2022-12-15T15:32:18.176Z,90.40
2022-12-15T15:33:22.430Z,92.00
2022-12-15T15:34:26.091Z,86.60
2022-12-15T15:35:31.632Z,88.00
2022-12-15T15:36:37.718Z,92.10
2022-12-15T15:37:40.761Z,92.20
2022-12-15T15:38:46.636Z,90.70
2022-12-15T15:39:54.510Z,98.30
2022-12-15T15:41:22.957Z,94.20
2022-12-15T15:42:32.224Z,93.30
2022-12-15T15:43:36.326Z,91.20
2022-12-15T15:44:40.438Z,91.10
2022-12-15T15:45:43.821Z,90.30
2022-12-15T15:46:50.183Z,94.40
2022-12-15T15:47:56.060Z,89.40
2022-12-15T15:49:07.345Z,92.70
2022-12-15T15:50:14.447Z,85.70
2022-12-15T15:51:18.616Z,99.80
2022-12-15T15:52:22.962Z,96.60
2022-12-15T15:53:27.944Z,96.00
2022-12-15T15:54:37.915Z,100.70
2022-12-15T15:55:42.562Z,96.30
2022-12-15T15:56:45.637Z,91.00
2022-12-15T15:57:48.809Z,99.30
2022-12-15T15:58:51.942Z,101.50
2022-12-15T15:59:55.360Z,98.50
2022-12-15T16:00:58.598Z,90.80
2022-12-15T16:02:02.344Z,89.60
2022-12-15T16:03:06.638Z,90.40
2022-12-15T16:04:12.340Z,85.80
2022-12-15T16:05:15.578Z,95.70
2022-12-15T16:06:21.072Z,92.80
2022-12-15T16:07:28.001Z,91.70
2022-12-15T16:08:36.510Z,89.10
2022-12-15T16:09:39.914Z,90.20
2022-12-15T16:10:48.681Z,89.00
2022-12-15T16:11:51.711Z,99.30
2022-12-15T16:12:57.542Z,95.80
2022-12-15T16:14:01.802Z,89.30
2022-12-15T16:15:20.394Z,96.20
2022-12-15T16:16:28.353Z,95.10
2022-12-15T16:17:31.353Z,93.90
2022-12-15T16:18:35.344Z,103.20
2022-12-15T16:19:39.917Z,97.40
2022-12-15T16:20:46.482Z,106.40
2022-12-15T16:21:51.009Z,102.10
2022-12-15T16:22:58.405Z,108.00
2022-12-15T16:24:10.005Z,106.30
2022-12-15T16:25:17.429Z,103.30
2022-12-15T16:26:32.393Z,95.70
2022-12-15T16:27:35.479Z,107.50
2022-12-15T16:28:38.568Z,106.80
2022-12-15T16:29:42.139Z,103.10
2022-12-15T16:30:45.733Z,104.10
2022-12-15T16:31:49.090Z,105.90
2022-12-15T16:32:53.448Z,101.60
2022-12-15T16:33:59.032Z,98.50
2022-12-15T16:35:02.147Z,105.90
2022-12-15T16:36:14.010Z,101.90
2022-12-15T16:37:39.681Z,94.80
2022-12-15T16:38:43.350Z,105.90
2022-12-15T16:39:46.341Z,95.00
2022-12-15T16:40:49.387Z,95.90
2022-12-15T16:41:55.670Z,94.20
2022-12-15T16:43:01.117Z,103.60
2022-12-15T16:44:04.313Z,91.10
2022-12-15T16:45:18.627Z,97.10
2022-12-15T16:46:21.874Z,93.40
2022-12-15T16:47:24.986Z,98.30
2022-12-15T16:48:28.366Z,98.70
2022-12-15T16:49:38.099Z,95.10
2022-12-15T16:50:55.361Z,89.50
2022-12-15T16:51:58.927Z,95.10
2022-12-15T16:53:04.154Z,90.90
2022-12-15T16:54:12.898Z,94.30
2022-12-15T16:55:28.277Z,92.30
2022-12-15T16:56:31.387Z,95.10
2022-12-15T16:57:35.177Z,84.60
2022-12-15T16:58:38.223Z,85.70
2022-12-15T16:59:41.430Z,92.30
2022-12-15T17:00:45.377Z,94.30
2022-12-15T17:01:48.535Z,92.60
2022-12-15T17:02:53.401Z,88.40
2022-12-15T17:03:57.154Z,93.40
2022-12-15T17:05:00.314Z,94.30
2022-12-15T17:06:06.700Z,100.40
2022-12-15T17:07:19.558Z,90.30
2022-12-15T17:08:43.841Z,88.20
2022-12-15T17:09:47.068Z,96.10
2022-12-15T17:10:51.064Z,94.10
2022-12-15T17:11:54.142Z,100.40
2022-12-15T17:13:06.730Z,96.50
2022-12-15T17:14:10.316Z,101.80
2022-12-15T17:15:23.353Z,98.60
2022-12-15T17:16:28.188Z,97.40
2022-12-15T17:17:31.595Z,95.70
2022-12-15T17:18:34.714Z,90.50
2022-12-15T17:19:37.874Z,88.90
2022-12-15T17:20:42.399Z,95.10
2022-12-15T17:21:51.834Z,96.20
2022-12-15T17:23:07.773Z,98.40
2022-12-15T17:24:15.942Z,89.70
2022-12-15T17:25:53.360Z,91.90
2022-12-15T17:26:47.976Z,83.30
2022-12-15T17:27:52.856Z,89.70
2022-12-15T17:28:59.823Z,90.70
2022-12-15T17:30:03.029Z,87.10
2022-12-15T17:31:09.849Z,94.80
2022-12-15T17:32:13.330Z,96.20
2022-12-15T17:33:25.130Z,94.10
2022-12-15T17:34:30.427Z,87.80
2022-12-15T17:35:33.753Z,97.40
2022-12-15T17:36:37.858Z,87.10
2022-12-15T17:37:41.862Z,86.90
2022-12-15T17:38:45.052Z,88.10
2022-12-15T17:39:51.588Z,90.20
2022-12-15T17:40:56.542Z,87.90
2022-12-15T17:42:01.433Z,83.60
2022-12-15T17:43:16.200Z,87.30
2022-12-15T17:44:34.371Z,84.10
2022-12-15T17:45:38.364Z,88.90
2022-12-15T17:46:41.418Z,87.70
2022-12-15T17:47:45.356Z,90.00
2022-12-15T17:48:48.422Z,86.30
2022-12-15T17:49:51.425Z,82.00
2022-12-15T17:50:54.552Z,79.70
2022-12-15T17:51:59.890Z,83.30
2022-12-15T17:53:05.621Z,80.20
2022-12-15T17:54:13.040Z,80.80
2022-12-15T17:55:33.327Z,88.10
2022-12-15T17:56:38.260Z,76.90
2022-12-15T17:57:41.399Z,78.50
2022-12-15T17:58:44.561Z,81.40
2022-12-15T17:59:47.720Z,76.90
2022-12-15T18:00:56.587Z,85.80
2022-12-15T18:01:59.778Z,82.90
2022-12-15T18:03:04.748Z,78.40
2022-12-15T18:04:09.644Z,81.50
2022-12-15T18:05:13.373Z,82.00
2022-12-15T18:06:17.612Z,86.00
2022-12-15T18:07:22.783Z,84.60
2022-12-15T18:08:27.818Z,86.90
2022-12-15T18:09:31.007Z,83.50
2022-12-15T18:10:38.156Z,81.30
2022-12-15T18:11:43.248Z,83.40
2022-12-15T18:12:46.357Z,79.50
2022-12-15T18:13:49.376Z,83.70
2022-12-15T18:14:53.589Z,82.30
2022-12-15T18:15:57.206Z,81.90
2022-12-15T18:17:00.227Z,80.70
2022-12-15T18:18:03.347Z,85.00
2022-12-15T18:19:06.510Z,83.40
2022-12-15T18:20:10.177Z,83.40
2022-12-15T18:21:15.527Z,88.00
2022-12-15T18:22:24.807Z,92.10
2022-12-15T18:23:32.393Z,88.90
2022-12-15T18:24:36.176Z,88.40
2022-12-15T18:25:40.160Z,89.30
2022-12-15T18:26:43.381Z,91.60
2022-12-15T18:27:47.211Z,86.00
2022-12-15T18:28:50.301Z,87.90
2022-12-15T18:29:53.426Z,86.80
2022-12-15T18:31:13.827Z,84.00
2022-12-15T18:32:18.671Z,84.00
2022-12-15T18:33:23.488Z,85.90
2022-12-15T18:34:26.514Z,82.50
2022-12-15T18:35:39.938Z,82.10
2022-12-15T18:36:43.410Z,79.40
2022-12-15T18:37:47.648Z,84.80
2022-12-15T18:38:50.922Z,80.00
2022-12-15T18:39:59.501Z,83.80
2022-12-15T18:41:13.254Z,82.80
2022-12-15T18:42:20.443Z,89.90
2022-12-15T18:43:25.984Z,90.80
2022-12-15T18:44:32.126Z,81.90
2022-12-15T18:45:35.167Z,86.70
2022-12-15T18:46:40.933Z,87.00
2022-12-15T18:47:46.987Z,86.40
2022-12-15T18:48:50.216Z,88.40
2022-12-15T18:49:53.170Z,86.00
2022-12-15T18:50:58.119Z,87.50
2022-12-15T18:52:01.146Z,88.70
2022-12-15T18:53:04.185Z,87.30
2022-12-15T18:54:15.301Z,90.30
2022-12-15T18:55:21.984Z,81.30
2022-12-15T18:56:25.250Z,86.30
2022-12-15T18:57:36.324Z,88.30
2022-12-15T18:58:40.163Z,89.90
2022-12-15T18:59:43.590Z,87.80
2022-12-15T19:00:47.527Z,82.00
2022-12-15T19:01:50.774Z,88.20
2022-12-15T19:02:57.303Z,89.00
2022-12-15T19:04:00.472Z,88.20
2022-12-15T19:05:03.820Z,91.20
2022-12-15T19:06:34.980Z,90.10
2022-12-15T19:07:38.159Z,77.30
2022-12-15T19:08:41.496Z,78.70
2022-12-15T19:09:44.644Z,86.50
2022-12-15T19:11:00.093Z,81.50
2022-12-15T19:12:18.365Z,85.00
2022-12-15T19:13:32.754Z,85.30
2022-12-15T19:14:42.935Z,81.60
2022-12-15T19:15:46.952Z,80.50
2022-12-15T19:17:09.146Z,84.70
2022-12-15T19:18:39.067Z,89.30
2022-12-15T19:20:00.774Z,80.80
2022-12-15T19:21:44.181Z,76.60
2022-12-15T19:22:48.838Z,80.30
2022-12-15T19:23:51.961Z,75.80
2022-12-15T19:24:55.113Z,83.30
2022-12-15T19:25:58.611Z,69.80
2022-12-15T19:27:01.769Z,78.40
2022-12-15T19:28:12.562Z,74.70
2022-12-15T19:29:19.122Z,76.00
2022-12-15T19:30:22.230Z,83.30
2022-12-15T19:31:25.330Z,81.90
2022-12-15T19:32:28.691Z,78.70
2022-12-15T19:33:32.342Z,77.30
2022-12-15T19:34:35.794Z,72.20
2022-12-15T19:35:41.860Z,74.40
2022-12-15T19:36:44.914Z,76.70
2022-12-15T19:37:50.148Z,77.50
2022-12-15T19:38:55.838Z,70.00
2022-12-15T19:40:01.522Z,71.60
2022-12-15T19:41:04.639Z,69.60
2022-12-15T19:42:19.669Z,75.80
2022-12-15T19:43:24.305Z,72.40
2022-12-15T19:44:27.530Z,75.40
2022-12-15T19:45:32.314Z,74.50
2022-12-15T19:46:35.948Z,79.30
2022-12-15T19:47:39.428Z,82.60
2022-12-15T19:48:43.484Z,77.90
2022-12-15T19:49:46.868Z,69.90
2022-12-15T19:50:51.905Z,68.90
2022-12-15T19:51:55.141Z,71.70
2022-12-15T19:53:01.534Z,67.40
2022-12-15T19:54:04.921Z,66.30
2022-12-15T19:55:16.482Z,67.30
2022-12-15T19:56:21.904Z,65.00
2022-12-15T19:57:25.029Z,70.40
2022-12-15T19:58:31.457Z,63.90
2022-12-15T19:59:34.472Z,69.50
2022-12-15T20:00:37.826Z,65.90
2022-12-15T20:01:41.018Z,66.40
2022-12-15T20:02:45.340Z,66.50
2022-12-15T20:03:51.138Z,64.60
2022-12-15T20:04:54.197Z,65.70
2022-12-15T20:05:58.946Z,66.00
2022-12-15T20:07:04.108Z,62.40
2022-12-15T20:08:07.211Z,64.40
2022-12-15T20:09:18.469Z,66.70
2022-12-15T20:10:32.159Z,58.80
2022-12-15T20:11:35.820Z,59.50
2022-12-15T20:12:38.904Z,65.60
2022-12-15T20:13:41.954Z,58.80
2022-12-15T20:14:47.148Z,60.40
2022-12-15T20:15:51.675Z,63.10
2022-12-15T20:16:55.172Z,60.20
2022-12-15T20:17:58.253Z,63.90
2022-12-15T20:19:01.505Z,67.10
2022-12-15T20:20:05.347Z,64.50
2022-12-15T20:21:09.954Z,64.90
2022-12-15T20:22:16.117Z,63.50
2022-12-15T20:23:27.699Z,72.00
2022-12-15T20:24:32.497Z,62.90
2022-12-15T20:25:37.548Z,66.90
2022-12-15T20:26:42.611Z,65.00
2022-12-15T20:27:47.670Z,60.60
2022-12-15T20:28:52.197Z,60.50
2022-12-15T20:29:55.165Z,60.50
2022-12-15T20:30:59.051Z,58.50
2022-12-15T20:32:02.202Z,59.40
2022-12-15T20:33:06.284Z,61.70
2022-12-15T20:34:09.234Z,57.10
2022-12-15T20:35:19.619Z,60.70
2022-12-15T20:36:26.369Z,55.30
2022-12-15T20:37:31.100Z,56.90
2022-12-15T20:38:34.343Z,62.50
2022-12-15T20:39:38.032Z,56.40
2022-12-15T20:40:40.949Z,57.80
2022-12-15T20:41:43.930Z,59.50
2022-12-15T20:42:50.162Z,59.60
2022-12-15T20:43:56.112Z,59.30
2022-12-15T20:44:59.149Z,60.20
2022-12-15T20:46:25.174Z,58.20
2022-12-15T20:47:28.530Z,61.10
2022-12-15T20:48:34.779Z,59.10
2022-12-15T20:49:38.167Z,52.70
2022-12-15T20:50:46.861Z,55.30
2022-12-15T20:51:50.932Z,55.30
2022-12-15T20:52:54.924Z,51.80
2022-12-15T20:54:00.727Z,59.60
2022-12-15T20:55:06.932Z,56.80
2022-12-15T20:56:10.026Z,61.30
2022-12-15T20:57:13.131Z,54.70
2022-12-15T20:58:17.116Z,55.60
2022-12-15T20:59:20.109Z,53.30
2022-12-15T21:00:23.282Z,53.60
2022-12-15T21:01:31.766Z,57.20
2022-12-15T21:02:35.021Z,51.30
2022-12-15T21:03:38.696Z,55.50
2022-12-15T21:04:42.294Z,55.80
2022-12-15T21:05:46.037Z,56.90
2022-12-15T21:06:54.454Z,52.30
2022-12-15T21:07:57.985Z,55.10
2022-12-15T21:09:01.123Z,55.50
2022-12-15T21:10:04.814Z,51.80
2022-12-15T21:11:18.481Z,54.90
2022-12-15T21:12:25.284Z,51.00
2022-12-15T21:13:33.161Z,53.40
2022-12-15T21:14:36.652Z,50.70
2022-12-15T21:15:39.793Z,51.10
2022-12-15T21:16:44.895Z,53.60
2022-12-15T21:17:58.020Z,54.40
2022-12-15T21:19:22.996Z,52.50
2022-12-15T21:20:26.359Z,50.60
2022-12-15T21:21:38.316Z,49.80
2022-12-15T21:22:41.918Z,49.00
2022-12-15T21:23:45.747Z,50.90
2022-12-15T21:24:54.214Z,48.40
2022-12-15T21:26:01.427Z,51.80
2022-12-15T21:27:04.504Z,50.80
2022-12-15T21:28:11.867Z,50.90
2022-12-15T21:29:18.089Z,50.90
2022-12-15T21:30:23.115Z,50.90
2022-12-15T21:31:26.737Z,50.40
2022-12-15T21:32:30.137Z,44.10
2022-12-15T21:33:33.373Z,45.90
2022-12-15T21:34:37.175Z,50.70
2022-12-15T21:35:41.531Z,44.00
2022-12-15T21:36:50.043Z,45.10
2022-12-15T21:37:54.934Z,39.60
2022-12-15T21:38:59.360Z,41.70
2022-12-15T21:40:02.570Z,44.60
2022-12-15T21:41:11.579Z,45.70
2022-12-15T21:42:16.762Z,45.40
2022-12-15T21:43:24.282Z,47.00
2022-12-15T21:44:27.511Z,42.50
2022-12-15T21:45:30.546Z,46.80
2022-12-15T21:46:33.561Z,47.00
2022-12-15T21:47:55.222Z,47.20
2022-12-15T21:49:20.596Z,45.40
2022-12-15T21:50:24.099Z,48.90
2022-12-15T21:51:30.101Z,44.40
2022-12-15T21:52:33.128Z,48.60
2022-12-15T21:53:36.232Z,46.20
2022-12-15T21:54:39.192Z,46.60
2022-12-15T21:55:44.572Z,48.90
2022-12-15T21:56:48.632Z,53.50
2022-12-15T21:57:52.429Z,48.60
2022-12-15T21:58:56.646Z,49.50
2022-12-15T21:59:59.607Z,51.10
2022-12-15T22:01:02.808Z,46.00
2022-12-15T22:02:24.258Z,53.10
2022-12-15T22:03:27.473Z,49.50
2022-12-15T22:04:34.211Z,43.60
2022-12-15T22:05:37.195Z,45.20
2022-12-15T22:06:40.556Z,45.70
2022-12-15T22:07:43.809Z,40.90
2022-12-15T22:08:46.870Z,43.80
2022-12-15T22:09:49.974Z,47.70
2022-12-15T22:10:54.895Z,46.40
2022-12-15T22:11:58.307Z,47.20
2022-12-15T22:13:03.097Z,48.80
2022-12-15T22:14:34.217Z,44.60
2022-12-15T22:15:37.341Z,49.40
2022-12-15T22:16:40.392Z,44.50
2022-12-15T22:17:44.388Z,45.10
2022-12-15T22:18:54.826Z,46.20
2022-12-15T22:21:01.273Z,47.00
2022-12-15T22:22:04.229Z,48.90
2022-12-15T22:23:07.464Z,47.20
2022-12-15T22:24:11.403Z,51.80
2022-12-15T22:25:24.582Z,54.50
2022-12-15T22:26:30.012Z,50.30
2022-12-15T22:27:34.523Z,53.80
2022-12-15T22:28:37.832Z,53.80
2022-12-15T22:29:41.000Z,49.50
2022-12-15T22:30:44.088Z,50.10
2022-12-15T22:31:50.744Z,50.30
2022-12-15T22:32:55.184Z,51.30
2022-12-15T22:33:58.723Z,52.00
2022-12-15T22:35:01.886Z,46.70
2022-12-15T22:36:05.024Z,49.00
2022-12-15T22:37:08.258Z,47.70
2022-12-15T22:38:11.323Z,47.50
2022-12-15T22:39:15.161Z,49.90
2022-12-15T22:40:18.314Z,51.10
2022-12-15T22:41:23.812Z,48.60
2022-12-15T22:42:26.779Z,45.50
2022-12-15T22:43:37.830Z,45.80
2022-12-15T22:44:41.006Z,46.20
2022-12-15T22:45:44.069Z,43.00
2022-12-15T22:46:48.582Z,49.10
2022-12-15T22:47:53.542Z,48.00
2022-12-15T22:48:58.502Z,47.10
2022-12-15T22:50:02.138Z,47.40
2022-12-15T22:51:06.303Z,50.60
2022-12-15T22:52:18.839Z,50.40
2022-12-15T22:53:23.003Z,45.30
2022-12-15T22:54:29.355Z,48.20
2022-12-15T22:55:32.502Z,44.20
2022-12-15T22:56:39.894Z,47.40
2022-12-15T22:57:52.249Z,50.40
2022-12-15T22:59:01.109Z,46.20
2022-12-15T23:00:08.057Z,45.80
2022-12-15T23:01:12.137Z,42.80
2022-12-15T23:02:15.143Z,44.80
2022-12-15T23:03:19.285Z,47.90
2022-12-15T23:04:24.094Z,44.70
2022-12-15T23:05:27.261Z,47.30
2022-12-15T23:06:30.505Z,46.50
2022-12-15T23:07:39.781Z,44.60
2022-12-15T23:08:42.739Z,50.10
2022-12-15T23:09:45.654Z,51.90
2022-12-15T23:11:07.701Z,47.80
2022-12-15T23:12:12.092Z,50.30
2022-12-15T23:13:15.084Z,47.20
2022-12-15T23:14:39.352Z,47.10
2022-12-15T23:16:01.155Z,51.30
2022-12-15T23:17:04.177Z,47.00
2022-12-15T23:18:07.558Z,48.50
2022-12-15T23:19:24.114Z,51.60
2022-12-15T23:20:27.254Z,54.40
2022-12-15T23:21:30.728Z,48.50
2022-12-15T23:22:33.692Z,49.20
2022-12-15T23:23:37.895Z,55.00
2022-12-15T23:24:41.109Z,52.70
2022-12-15T23:25:45.145Z,53.90
2022-12-15T23:26:48.174Z,53.70
2022-12-15T23:27:51.604Z,53.90
2022-12-15T23:28:55.419Z,54.40
2022-12-15T23:29:58.657Z,52.80
2022-12-15T23:31:01.893Z,52.80
2022-12-15T23:32:05.132Z,52.50
2022-12-15T23:33:08.162Z,56.80
2022-12-15T23:34:11.707Z,58.00
2022-12-15T23:35:14.765Z,53.10
2022-12-15T23:36:17.824Z,56.20
2022-12-15T23:37:20.736Z,56.10
2022-12-15T23:38:25.307Z,57.30
2022-12-15T23:39:28.332Z,53.30
